Time;durP1;ratioP1;P1;durP2;ratioP2;P2;SDS_P1;SDS_P2;PMS_P1;PMS_P2;Temp;Humidity;BMP_temperature;BMP_pressure;BME280_temperature;BME280_humidity;BME280_pressure;Samples;Min_cycle;Max_cycle;Signal;HPM_P1;HPM_P2
2022/09/26 00:02:16;;;;;;;23.63;21.27;;;13.50;99.90;;;;;;6240753;23;20145;-47
2022/09/26 00:04:42;;;;;;;23.00;20.80;;;13.50;99.90;;;;;;6241301;23;20144;-45
2022/09/26 00:07:07;;;;;;;23.17;20.77;;;13.50;99.90;;;;;;6241392;23;20152;-44
2022/09/26 00:09:33;;;;;;;23.30;21.00;;;13.60;98.70;;;;;;6228837;23;20143;-51
2022/09/26 00:11:59;;;;;;;22.80;20.40;;;13.60;96.30;;;;;;6239891;23;20159;-47
2022/09/26 00:14:27;;;;;;;21.43;19.30;;;13.60;94.80;;;;;;6241481;23;20534;-49
2022/09/26 00:16:54;;;;;;;21.87;19.70;;;13.60;94.50;;;;;;6240857;23;20141;-45
2022/09/26 00:19:20;;;;;;;21.73;19.60;;;13.60;92.50;;;;;;6241316;23;20379;-47
2022/09/26 00:21:47;;;;;;;22.70;20.10;;;13.60;91.10;;;;;;6241236;23;20405;-48
2022/09/26 00:24:13;;;;;;;22.33;20.20;;;13.60;90.60;;;;;;6240925;23;20361;-45
2022/09/26 00:26:39;;;;;;;22.20;20.10;;;13.60;89.70;;;;;;6241573;23;20494;-44
2022/09/26 00:29:08;;;;;;;21.70;19.60;;;13.60;90.30;;;;;;6241052;23;20368;-45
2022/09/26 00:31:44;;;;;;;21.97;19.77;;;13.60;86.10;;;;;;6241638;23;20190;-50
2022/09/26 00:34:14;;;;;;;22.47;20.20;;;13.70;89.00;;;;;;6240381;23;20390;-46
2022/09/26 00:36:40;;;;;;;22.37;20.17;;;13.70;89.20;;;;;;6241014;23;20454;-46
2022/09/26 00:39:08;;;;;;;22.33;20.03;;;13.70;84.00;;;;;;6241205;23;20449;-46
2022/09/26 00:41:35;;;;;;;21.83;19.73;;;13.60;84.20;;;;;;6240147;23;20384;-44
2022/09/26 00:44:01;;;;;;;20.77;18.67;;;13.60;84.60;;;;;;6240618;23;20833;-49
2022/09/26 00:46:43;;;;;;;21.87;19.77;;;13.60;84.40;;;;;;6240349;23;20370;-48
2022/09/26 00:49:43;;;;;;;20.20;18.20;;;13.60;85.90;;;;;;6213981;23;20400;-47
2022/09/26 00:52:14;;;;;;;20.60;17.47;;;13.70;83.60;;;;;;6222612;23;20406;-48
2022/09/26 00:54:44;;;;;;;20.80;18.70;;;13.70;82.80;;;;;;6240661;23;20375;-45
2022/09/26 00:57:18;;;;;;;20.00;18.00;;;13.70;76.90;;;;;;6240308;23;20368;-46
2022/09/26 00:59:49;;;;;;;22.30;20.00;;;13.70;74.30;;;;;;6240523;23;20369;-51
2022/09/26 01:02:15;;;;;;;20.00;18.10;;;13.70;71.80;;;;;;6240456;23;20423;-47
2022/09/26 01:04:43;;;;;;;19.33;17.33;;;13.70;70.00;;;;;;6240565;23;20356;-45
2022/09/26 01:07:16;;;;;;;20.80;18.20;;;13.80;60.80;;;;;;6240963;23;20368;-45
2022/09/26 01:09:42;;;;;;;18.93;16.90;;;13.80;57.30;;;;;;6240811;23;20364;-45
2022/09/26 01:12:09;;;;;;;18.83;16.93;;;13.80;55.50;;;;;;6240194;23;20357;-44
2022/09/26 01:14:36;;;;;;;18.17;16.27;;;13.80;53.90;;;;;;6240486;23;20152;-44
2022/09/26 01:17:02;;;;;;;18.13;16.27;;;13.80;56.20;;;;;;6241244;23;20355;-45
2022/09/26 01:19:54;;;;;;;18.73;16.83;;;13.80;56.10;;;;;;6240632;23;20449;-47
2022/09/26 01:22:39;;;;;;;19.90;17.80;;;13.80;60.80;;;;;;6240134;23;20469;-47
2022/09/26 01:25:34;;;;;;;18.87;16.97;;;13.80;63.00;;;;;;6240598;23;20369;-45
2022/09/26 01:28:19;;;;;;;18.10;16.17;;;13.90;58.00;;;;;;6213100;23;20398;-47
2022/09/26 01:30:55;;;;;;;18.60;16.07;;;13.90;58.20;;;;;;6240010;23;20845;-46
2022/09/26 01:34:06;;;;;;;17.57;15.77;;;13.80;63.00;;;;;;6239140;23;20368;-44
2022/09/26 01:36:44;;;;;;;19.90;16.20;;;13.80;75.80;;;;;;6230305;23;20845;-43
2022/09/26 01:39:25;;;;;;;18.80;16.40;;;13.80;78.20;;;;;;6240185;23;20446;-48
2022/09/26 01:42:04;;;;;;;19.17;15.73;;;13.80;84.50;;;;;;6240370;23;20402;-44
2022/09/26 01:44:46;;;;;;;17.60;15.43;;;13.70;97.50;;;;;;6239783;23;20474;-46
2022/09/26 01:47:20;;;;;;;24.97;17.10;;;13.70;99.90;;;;;;6213289;23;20390;-45
2022/09/26 01:49:54;;;;;;;23.00;17.23;;;13.70;99.90;;;;;;6239804;23;20387;-44
2022/09/26 01:52:36;;;;;;;24.10;17.07;;;13.60;99.90;;;;;;6239300;23;20438;-46
2022/09/26 01:55:13;;;;;;;18.80;16.20;;;13.50;99.90;;;;;;6239826;23;20362;-48
2022/09/26 01:58:17;;;;;;;23.53;16.77;;;13.50;99.90;;;;;;6239879;23;20466;-43
2022/09/26 02:00:46;;;;;;;22.33;18.37;;;13.50;99.90;;;;;;6240116;23;20365;-46
2022/09/26 02:03:19;;;;;;;21.90;17.50;;;13.50;99.90;;;;;;6240077;23;20409;-44
2022/09/26 02:06:04;;;;;;;19.97;16.80;;;13.50;99.90;;;;;;6239729;23;20388;-46
2022/09/26 02:08:41;;;;;;;22.70;17.47;;;13.40;99.90;;;;;;6240298;23;20401;-44
2022/09/26 02:11:15;;;;;;;22.57;17.47;;;13.40;99.90;;;;;;6240266;23;20369;-45
2022/09/26 02:14:16;;;;;;;21.87;16.70;;;13.30;99.90;;;;;;6213363;23;20397;-47
2022/09/26 02:16:50;;;;;;;22.53;17.40;;;13.20;99.90;;;;;;6233907;23;20855;-46
2022/09/26 02:19:27;;;;;;;23.40;17.10;;;13.20;99.90;;;;;;6239802;23;20452;-46
2022/09/26 02:21:53;;;;;;;24.23;17.90;;;13.10;99.90;;;;;;6240338;23;20732;-46
2022/09/26 02:24:21;;;;;;;22.97;18.27;;;13.10;99.90;;;;;;6240571;23;20823;-45
2022/09/26 02:26:46;;;;;;;20.07;15.67;;;13.10;99.90;;;;;;6239310;23;20919;-44
2022/09/26 02:29:13;;;;;;;24.27;16.83;;;13.10;99.90;;;;;;6240068;23;20412;-45
2022/09/26 02:31:47;;;;;;;18.87;14.77;;;13.10;99.90;;;;;;6240064;23;20521;-45
2022/09/26 02:34:12;;;;;;;17.47;14.23;;;13.00;99.90;;;;;;6240338;23;20724;-43
2022/09/26 02:36:38;;;;;;;16.50;14.70;;;12.90;99.90;;;;;;6240085;23;20403;-44
2022/09/26 02:39:04;;;;;;;15.90;12.37;;;12.90;99.90;;;;;;6239345;23;20197;-45
2022/09/26 02:41:51;;;;;;;14.00;11.03;;;12.80;99.90;;;;;;6239818;23;20531;-46
2022/09/26 02:44:35;;;;;;;14.30;11.50;;;12.80;99.90;;;;;;6239783;23;20372;-46
2022/09/26 02:47:45;;;;;;;16.20;11.13;;;12.70;99.90;;;;;;6239701;23;20365;-48
2022/09/26 02:50:13;;;;;;;13.93;10.87;;;12.60;99.90;;;;;;6206082;23;20384;-46
2022/09/26 02:53:03;;;;;;;13.40;10.50;;;12.60;99.90;;;;;;6206413;23;20704;-46
2022/09/26 02:55:40;;;;;;;9.83;8.40;;;12.60;99.90;;;;;;6228242;23;20391;-47
2022/09/26 02:58:12;;;;;;;11.40;8.90;;;12.50;99.90;;;;;;6239440;23;20415;-46
2022/09/26 03:00:58;;;;;;;10.87;9.20;;;12.40;99.90;;;;;;6240545;23;20357;-49
2022/09/26 03:03:33;;;;;;;10.00;8.47;;;12.30;99.90;;;;;;6239394;23;20387;-48
2022/09/26 03:06:02;;;;;;;10.50;8.73;;;12.30;99.90;;;;;;6241838;23;20830;-44
2022/09/26 03:08:32;;;;;;;12.40;9.53;;;12.20;99.90;;;;;;6214584;23;20388;-49
2022/09/26 03:11:02;;;;;;;13.80;10.50;;;12.20;99.90;;;;;;6242070;23;20447;-49
2022/09/26 03:13:32;;;;;;;13.83;11.23;;;12.10;99.90;;;;;;6241332;23;20439;-45
2022/09/26 03:15:58;;;;;;;12.63;10.40;;;12.10;99.90;;;;;;6240989;23;20369;-45
2022/09/26 03:18:50;;;;;;;15.70;11.83;;;12.10;99.90;;;;;;6241541;23;20411;-50
2022/09/26 03:21:17;;;;;;;13.43;10.57;;;12.00;99.90;;;;;;6241832;23;20359;-48
2022/09/26 03:23:42;;;;;;;15.10;11.30;;;12.00;99.90;;;;;;6241667;23;20371;-47
2022/09/26 03:26:12;;;;;;;16.00;11.70;;;12.00;99.90;;;;;;6241304;23;20377;-48
2022/09/26 03:28:38;;;;;;;15.93;12.50;;;12.00;99.90;;;;;;6241284;23;20359;-45
2022/09/26 03:31:05;;;;;;;15.20;11.93;;;12.00;99.90;;;;;;6241763;23;20364;-45
2022/09/26 03:33:31;;;;;;;13.63;11.10;;;12.00;99.90;;;;;;6241400;23;20676;-46
2022/09/26 03:35:58;;;;;;;12.03;10.70;;;12.00;99.90;;;;;;6241264;23;20807;-45
2022/09/26 03:38:25;;;;;;;13.93;9.00;;;12.00;99.90;;;;;;6241118;23;20986;-45
2022/09/26 03:40:52;;;;;;;11.30;9.73;;;11.90;99.90;;;;;;6241581;23;20467;-47
2022/09/26 03:43:18;;;;;;;10.10;8.97;;;11.90;99.90;;;;;;6241686;23;20433;-46
2022/09/26 03:45:43;;;;;;;10.10;8.93;;;11.90;99.90;;;;;;6240957;23;20368;-46
2022/09/26 03:48:09;;;;;;;12.67;9.20;;;11.90;99.90;;;;;;6241530;23;20148;-45
2022/09/26 03:50:34;;;;;;;10.80;8.70;;;11.90;99.90;;;;;;6241217;23;20484;-44
2022/09/26 03:53:00;;;;;;;12.63;10.40;;;11.90;99.90;;;;;;6241432;23;20192;-46
2022/09/26 03:55:26;;;;;;;10.93;8.93;;;11.90;99.90;;;;;;6240818;23;20153;-45
2022/09/26 03:57:52;;;;;;;13.10;8.67;;;11.90;99.90;;;;;;6240014;23;20758;-44
2022/09/26 04:00:18;;;;;;;13.33;9.07;;;11.90;99.90;;;;;;6241424;23;20373;-45
2022/09/26 04:02:43;;;;;;;11.90;10.57;;;11.90;99.90;;;;;;6240317;23;20203;-47
2022/09/26 04:05:09;;;;;;;13.00;8.80;;;11.90;99.90;;;;;;6240974;23;20149;-50
2022/09/26 04:07:35;;;;;;;11.80;9.90;;;11.90;99.90;;;;;;6240468;23;20158;-48
2022/09/26 04:10:00;;;;;;;13.23;10.70;;;11.90;99.90;;;;;;6240819;23;20153;-46
2022/09/26 04:12:26;;;;;;;11.90;10.03;;;11.90;99.90;;;;;;6214251;23;20161;-44
2022/09/26 04:14:53;;;;;;;13.77;11.97;;;11.90;99.90;;;;;;6241434;23;20145;-47
2022/09/26 04:17:18;;;;;;;15.90;13.10;;;11.80;99.90;;;;;;6237491;23;20645;-47
2022/09/26 04:19:44;;;;;;;31.70;28.50;;;11.80;99.90;;;;;;6231058;23;20795;-47
2022/09/26 04:22:10;;;;;;;41.27;36.77;;;11.80;99.90;;;;;;6231200;23;20707;-46
2022/09/26 04:24:36;;;;;;;16.27;14.10;;;11.80;99.90;;;;;;6231524;23;20191;-47
2022/09/26 04:27:01;;;;;;;18.87;16.10;;;11.80;99.90;;;;;;6230894;23;20156;-47
2022/09/26 04:29:28;;;;;;;14.00;12.17;;;11.70;99.90;;;;;;6205087;23;20855;-49
2022/09/26 04:31:53;;;;;;;16.03;12.57;;;11.80;99.90;;;;;;6232040;23;20196;-49
2022/09/26 04:34:23;;;;;;;16.23;12.13;;;11.70;99.90;;;;;;6230707;23;20380;-46
2022/09/26 04:36:50;;;;;;;18.63;16.33;;;11.80;99.90;;;;;;6231879;23;20500;-48
2022/09/26 04:39:16;;;;;;;16.40;13.07;;;11.80;99.90;;;;;;6240481;23;20769;-49
2022/09/26 04:41:41;;;;;;;15.03;11.93;;;11.80;99.90;;;;;;6240962;23;20361;-45
2022/09/26 04:44:09;;;;;;;17.27;12.57;;;11.80;99.90;;;;;;6240614;23;20146;-47
2022/09/26 04:46:35;;;;;;;16.17;12.53;;;11.80;99.90;;;;;;6241045;23;20138;-46
2022/09/26 04:49:01;;;;;;;17.30;12.23;;;11.80;99.90;;;;;;6240560;23;20379;-46
2022/09/26 04:51:28;;;;;;;16.10;11.77;;;11.70;99.90;;;;;;6241206;23;20568;-44
2022/09/26 04:53:54;;;;;;;15.77;11.57;;;11.60;99.90;;;;;;6240492;23;20418;-44
2022/09/26 04:56:21;;;;;;;18.13;12.80;;;11.60;99.90;;;;;;6213133;23;20814;-46
2022/09/26 04:58:47;;;;;;;15.80;12.63;;;11.50;99.90;;;;;;6213452;23;20430;-48
2022/09/26 05:01:15;;;;;;;16.80;12.17;;;11.50;99.90;;;;;;6239648;23;20680;-49
2022/09/26 05:03:40;;;;;;;15.83;12.30;;;11.50;99.90;;;;;;6239867;23;20157;-44
2022/09/26 05:06:07;;;;;;;19.37;12.30;;;11.50;99.90;;;;;;6240725;23;20374;-45
2022/09/26 05:08:37;;;;;;;19.40;12.67;;;11.50;99.90;;;;;;6240672;23;20221;-46
2022/09/26 05:11:03;;;;;;;21.73;14.20;;;11.40;99.90;;;;;;6240564;23;20364;-46
2022/09/26 05:13:29;;;;;;;16.03;12.00;;;11.40;99.90;;;;;;6240442;23;20701;-49
2022/09/26 05:15:58;;;;;;;17.33;12.57;;;11.30;99.90;;;;;;6240661;23;20506;-45
2022/09/26 05:18:27;;;;;;;19.67;12.83;;;11.40;99.90;;;;;;6240606;23;20205;-45
2022/09/26 05:20:53;;;;;;;19.20;13.97;;;11.40;99.90;;;;;;6240384;23;20722;-45
2022/09/26 05:26:25;;;;;;;18.20;13.20;;;11.40;99.90;;;;;;6240190;23;20463;-47
2022/09/26 05:29:03;;;;;;;17.63;12.80;;;11.40;99.90;;;;;;6239960;23;20446;-48
2022/09/26 05:31:33;;;;;;;19.30;14.37;;;11.40;99.90;;;;;;6240410;23;20695;-46
2022/09/26 05:33:59;;;;;;;18.70;13.70;;;11.40;99.90;;;;;;6240719;23;20352;-49
2022/09/26 05:36:26;;;;;;;18.37;14.40;;;11.40;99.90;;;;;;6240706;23;20448;-45
2022/09/26 05:38:52;;;;;;;20.30;14.57;;;11.50;99.90;;;;;;6240573;23;20197;-46
2022/09/26 05:41:18;;;;;;;22.67;15.73;;;11.50;99.90;;;;;;6240899;23;20360;-49
2022/09/26 05:43:45;;;;;;;18.47;14.30;;;11.50;99.90;;;;;;6240611;23;20352;-47
2022/09/26 05:46:11;;;;;;;17.37;13.90;;;11.50;99.90;;;;;;6240531;23;20451;-45
2022/09/26 05:48:39;;;;;;;22.90;15.17;;;11.60;99.90;;;;;;6240670;23;20389;-48
2022/09/26 05:51:09;;;;;;;20.50;15.37;;;11.60;99.90;;;;;;6240523;23;21149;-45
2022/09/26 05:53:35;;;;;;;21.97;13.90;;;11.60;99.90;;;;;;6239655;23;20392;-47
2022/09/26 05:56:01;;;;;;;17.97;13.37;;;11.60;99.90;;;;;;6239904;23;20376;-46
2022/09/26 05:58:31;;;;;;;18.87;13.73;;;11.60;99.90;;;;;;6240551;23;20491;-50
2022/09/26 06:01:01;;;;;;;19.97;13.80;;;11.60;99.90;;;;;;6240642;23;20739;-48
2022/09/26 06:03:33;;;;;;;17.43;14.07;;;11.70;99.90;;;;;;6240339;23;20422;-50
2022/09/26 06:06:07;;;;;;;18.07;13.87;;;11.70;99.90;;;;;;6239873;23;20362;-47
2022/09/26 06:08:34;;;;;;;18.47;13.83;;;11.80;99.90;;;;;;6240284;23;20728;-48
2022/09/26 06:11:08;;;;;;;17.40;13.33;;;11.70;99.90;;;;;;6240045;23;20696;-45
2022/09/26 06:13:34;;;;;;;21.00;13.00;;;11.70;99.90;;;;;;6240236;23;20376;-46
2022/09/26 06:16:12;;;;;;;17.63;13.00;;;11.70;99.90;;;;;;6240061;23;20384;-49
2022/09/26 06:18:40;;;;;;;22.70;13.97;;;11.70;99.90;;;;;;6240133;23;20445;-46
2022/09/26 06:21:08;;;;;;;19.70;14.50;;;11.70;99.90;;;;;;6240026;23;20391;-45
2022/09/26 06:23:34;;;;;;;17.23;14.07;;;11.50;99.90;;;;;;6239037;23;20447;-45
2022/09/26 06:26:02;;;;;;;18.83;14.03;;;11.50;99.90;;;;;;6213302;23;20793;-46
2022/09/26 06:28:28;;;;;;;19.33;14.47;;;11.50;99.90;;;;;;6240061;23;20372;-51
2022/09/26 06:30:54;;;;;;;18.47;13.97;;;11.50;99.90;;;;;;6240127;23;20857;-46
2022/09/26 06:33:21;;;;;;;19.27;14.50;;;11.60;99.90;;;;;;6240358;23;20413;-46
2022/09/26 06:35:47;;;;;;;15.83;13.53;;;11.60;99.90;;;;;;6239929;23;20365;-53
2022/09/26 06:38:13;;;;;;;17.40;13.53;;;11.70;99.90;;;;;;6239794;23;20830;-49
2022/09/26 06:40:38;;;;;;;17.00;12.60;;;11.60;99.90;;;;;;6242368;23;20439;-47
2022/09/26 06:43:04;;;;;;;17.23;12.97;;;11.70;99.90;;;;;;6242089;23;20215;-46
2022/09/26 06:45:30;;;;;;;15.60;12.90;;;11.60;99.90;;;;;;6241872;23;20154;-44
2022/09/26 06:47:59;;;;;;;19.57;13.50;;;11.50;99.90;;;;;;6215164;23;20165;-44
2022/09/26 06:50:25;;;;;;;18.80;13.67;;;11.50;99.90;;;;;;6241951;23;20209;-50
2022/09/26 06:52:50;;;;;;;19.17;14.27;;;11.50;99.90;;;;;;6237905;23;20757;-45
2022/09/26 06:55:16;;;;;;;17.30;13.30;;;11.50;99.90;;;;;;6241128;23;20584;-47
2022/09/26 06:57:43;;;;;;;17.40;12.87;;;11.60;99.90;;;;;;6241614;23;20177;-46
2022/09/26 07:00:14;;;;;;;19.67;12.70;;;11.60;99.90;;;;;;6241977;23;20468;-46
2022/09/26 07:03:00;;;;;;;17.50;12.27;;;11.60;99.90;;;;;;6214823;23;20391;-45
2022/09/26 07:05:26;;;;;;;16.63;12.67;;;11.60;99.90;;;;;;6241552;23;20765;-46
2022/09/26 07:07:53;;;;;;;17.10;13.10;;;11.70;99.90;;;;;;6241745;23;20373;-46
2022/09/26 07:10:20;;;;;;;17.23;12.23;;;11.70;99.90;;;;;;6241481;23;20714;-47
2022/09/26 07:12:46;;;;;;;14.87;11.60;;;11.70;99.90;;;;;;6241792;23;20464;-48
2022/09/26 07:15:15;;;;;;;16.00;13.00;;;11.70;99.90;;;;;;6241327;23;20470;-45
2022/09/26 07:17:42;;;;;;;18.70;13.53;;;11.70;99.90;;;;;;6241964;23;20416;-51
2022/09/26 07:20:12;;;;;;;18.47;13.50;;;11.70;99.90;;;;;;6241080;23;20439;-50
2022/09/26 07:22:38;;;;;;;15.13;11.97;;;11.60;99.90;;;;;;6214575;23;20835;-45
2022/09/26 07:25:04;;;;;;;16.37;13.37;;;11.70;99.90;;;;;;6241656;23;20380;-49
2022/09/26 07:27:30;;;;;;;17.10;12.73;;;11.70;99.90;;;;;;6241722;23;20149;-46
2022/09/26 07:29:57;;;;;;;17.50;13.13;;;11.80;99.90;;;;;;6240770;23;20369;-49
2022/09/26 07:32:23;;;;;;;14.87;12.20;;;11.90;99.90;;;;;;6240884;23;20161;-47
2022/09/26 07:34:48;;;;;;;17.47;12.80;;;11.90;99.90;;;;;;6241368;23;20388;-48
2022/09/26 07:37:15;;;;;;;20.13;14.63;;;12.00;99.90;;;;;;6240447;23;20364;-49
2022/09/26 07:39:41;;;;;;;19.50;13.00;;;12.10;99.90;;;;;;6240531;23;20504;-50
2022/09/26 07:42:07;;;;;;;17.60;12.90;;;12.20;99.90;;;;;;6241462;23;20377;-46
2022/09/26 07:44:33;;;;;;;14.53;12.33;;;12.40;99.90;;;;;;6241400;23;20143;-45
2022/09/26 07:52:28;;;;;;;17.50;12.00;;;12.60;99.90;;;;;;6241162;23;20455;-46
2022/09/26 07:54:53;;;;;;;14.50;11.67;;;12.80;99.90;;;;;;6241727;23;20380;-47
2022/09/26 07:57:19;;;;;;;12.70;10.07;;;12.90;99.90;;;;;;6240983;23;20366;-48
2022/09/26 07:59:45;;;;;;;15.53;10.80;;;13.00;99.90;;;;;;6241635;23;20209;-47
2022/09/26 08:02:22;;;;;;;14.77;10.33;;;13.20;99.90;;;;;;6241296;23;20368;-46
2022/09/26 08:04:47;;;;;;;13.53;10.00;;;13.20;99.90;;;;;;6241718;23;20216;-49
2022/09/26 08:07:14;;;;;;;14.43;10.03;;;13.40;99.90;;;;;;6241329;23;20834;-45
2022/09/26 08:09:39;;;;;;;11.73;9.87;;;13.50;99.90;;;;;;6240186;23;20578;-45
2022/09/26 08:12:05;;;;;;;11.50;9.40;;;13.30;99.90;;;;;;6241082;23;20377;-47
2022/09/26 08:14:30;;;;;;;10.93;8.57;;;13.40;99.90;;;;;;6241391;23;20147;-46
2022/09/26 08:16:56;;;;;;;14.93;9.90;;;13.40;99.90;;;;;;6241178;23;20138;-51
2022/09/26 08:19:23;;;;;;;10.60;9.40;;;13.60;99.90;;;;;;6241203;23;20182;-47
2022/09/26 08:21:48;;;;;;;11.30;8.50;;;13.90;99.90;;;;;;6241147;23;20149;-46
2022/09/26 08:24:14;;;;;;;16.67;8.13;;;14.30;99.90;;;;;;6240889;23;20382;-44
2022/09/26 08:26:39;;;;;;;9.77;8.50;;;15.10;99.90;;;;;;6213865;23;20599;-47
2022/09/26 08:29:11;;;;;;;7.30;6.57;;;15.90;99.90;;;;;;6214307;23;20152;-47
2022/09/26 08:31:40;;;;;;;7.80;6.80;;;16.70;29.40;;;;;;6240951;23;20169;-47
2022/09/26 08:34:06;;;;;;;7.07;6.37;;;17.30;1.00;;;;;;6240977;23;20360;-46
2022/09/26 08:36:34;;;;;;;7.00;6.30;;;17.80;1.00;;;;;;6240717;23;20441;-49
2022/09/26 08:39:00;;;;;;;7.67;6.90;;;18.50;1.00;;;;;;6239216;23;20539;-48
2022/09/26 08:41:49;;;;;;;7.57;6.87;;;19.00;99.90;;;;;;6240798;23;21126;-45
2022/09/26 08:44:22;;;;;;;9.10;7.60;;;19.50;99.90;;;;;;6240743;23;20160;-46
2022/09/26 08:47:01;;;;;;;9.73;8.13;;;19.70;99.90;;;;;;6241036;23;20679;-46
2022/09/26 08:49:41;;;;;;;7.77;7.07;;;20.10;1.00;;;;;;6240569;23;20364;-45
2022/09/26 08:52:38;;;;;;;7.80;7.10;;;20.90;1.00;;;;;;6240247;23;20371;-47
2022/09/26 08:55:11;;;;;;;8.87;8.07;;;20.90;99.90;;;;;;6240385;23;20379;-44
2022/09/26 08:57:36;;;;;;;8.70;7.80;;;21.30;1.00;;;;;;6240232;23;20550;-44
2022/09/26 09:00:14;;;;;;;9.70;8.90;;;21.70;95.40;;;;;;6240508;23;20399;-45
2022/09/26 09:03:08;;;;;;;8.13;7.53;;;21.90;99.90;;;;;;6240745;23;20165;-44
2022/09/26 09:05:40;;;;;;;11.10;10.20;;;22.70;99.90;;;;;;6240719;23;20886;-43
2022/09/26 09:08:21;;;;;;;8.80;8.00;;;23.30;1.00;;;;;;6240010;23;20364;-44
2022/09/26 09:11:01;;;;;;;7.93;7.33;;;23.70;1.00;;;;;;6240536;23;20357;-43
2022/09/26 09:13:50;;;;;;;8.50;7.90;;;24.40;1.00;;;;;;6240826;23;20788;-47
2022/09/26 09:16:52;;;;;;;8.93;8.23;;;24.60;1.00;;;;;;6240495;23;20376;-45
2022/09/26 09:19:42;;;;;;;8.80;8.10;;;24.60;1.00;;;;;;6240367;23;20898;-44
2022/09/26 09:22:26;;;;;;;9.10;8.50;;;25.10;99.90;;;;;;6240466;23;20353;-44
2022/09/26 09:24:59;;;;;;;9.40;8.70;;;24.60;99.90;;;;;;6240362;23;20406;-45
2022/09/26 09:27:50;;;;;;;8.63;7.93;;;23.20;99.90;;;;;;6240562;23;20487;-48
2022/09/26 09:30:26;;;;;;;7.90;7.30;;;23.40;1.00;;;;;;6240627;23;20701;-44
2022/09/26 09:33:03;;;;;;;8.33;7.73;;;23.80;1.00;;;;;;6239371;23;20371;-45
2022/09/26 09:35:39;;;;;;;8.67;8.07;;;23.50;1.00;;;;;;6240612;23;20814;-44
2022/09/26 09:38:08;;;;;;;7.80;7.20;;;23.40;1.00;;;;;;6240138;23;20442;-46
2022/09/26 09:40:45;;;;;;;7.87;7.37;;;23.60;1.00;;;;;;6240361;23;20447;-47
2022/09/26 09:43:18;;;;;;;7.70;7.20;;;24.50;1.00;;;;;;6240438;23;20359;-46
2022/09/26 09:45:48;;;;;;;8.30;7.70;;;24.30;1.00;;;;;;6213195;23;20376;-44
2022/09/26 09:48:14;;;;;;;8.80;8.10;;;24.90;99.90;;;;;;6213421;23;20380;-45
2022/09/26 09:50:52;;;;;;;7.13;6.63;;;24.50;99.90;;;;;;6240379;23;20383;-45
2022/09/26 09:53:46;;;;;;;8.23;7.73;;;24.10;1.00;;;;;;6240659;23;20364;-46
2022/09/26 09:56:17;;;;;;;8.00;7.20;;;24.10;1.00;;;;;;6240778;23;20364;-45
2022/09/26 09:59:08;;;;;;;7.97;7.37;;;24.70;99.90;;;;;;6240098;23;20508;-46
2022/09/26 10:01:42;;;;;;;8.30;7.50;;;25.50;99.90;;;;;;6240241;23;20831;-47
2022/09/26 10:04:33;;;;;;;6.53;6.03;;;25.90;99.90;;;;;;6239655;23;20400;-45
2022/09/26 10:07:00;;;;;;;5.40;5.00;;;26.10;99.90;;;;;;6240224;23;20827;-48
2022/09/26 10:09:31;;;;;;;4.80;4.50;;;25.80;99.90;;;;;;6240376;23;20384;-46
2022/09/26 10:11:58;;;;;;;4.60;4.30;;;25.30;99.90;;;;;;6239870;23;20451;-43
2022/09/26 10:14:48;;;;;;;4.67;4.37;;;24.50;99.90;;;;;;6241362;23;20414;-46
2022/09/26 10:17:17;;;;;;;4.40;4.20;;;24.70;99.90;;;;;;6241465;23;20392;-45
2022/09/26 10:19:43;;;;;;;4.80;4.50;;;25.20;99.90;;;;;;6215752;23;20858;-45
2022/09/26 10:22:23;;;;;;;5.17;4.77;;;25.40;99.90;;;;;;6242218;23;20371;-44
2022/09/26 10:24:50;;;;;;;5.53;5.23;;;25.70;99.90;;;;;;6242434;23;20874;-46
2022/09/26 10:27:23;;;;;;;5.40;4.83;;;25.80;99.90;;;;;;6242153;23;20744;-46
2022/09/26 10:30:00;;;;;;;4.90;4.70;;;24.90;99.90;;;;;;6241934;23;20854;-47
2022/09/26 10:32:27;;;;;;;5.87;5.47;;;24.00;99.90;;;;;;6241647;23;20810;-47
2022/09/26 10:35:17;;;;;;;5.57;5.23;;;24.00;99.90;;;;;;6241691;23;20371;-46
2022/09/26 10:37:47;;;;;;;5.73;5.27;;;23.90;99.90;;;;;;6214443;23;20451;-49
2022/09/26 10:40:44;;;;;;;5.20;4.90;;;24.60;99.90;;;;;;6242618;23;21040;-49
2022/09/26 10:43:23;;;;;;;5.43;5.13;;;24.50;99.90;;;;;;6241836;23;20364;-44
2022/09/26 10:46:13;;;;;;;6.07;5.67;;;24.20;99.90;;;;;;6242400;23;20437;-46
2022/09/26 10:48:45;;;;;;;8.13;5.90;;;22.70;99.90;;;;;;6242188;23;20400;-47
2022/09/26 10:51:28;;;;;;;5.53;5.10;;;22.60;99.90;;;;;;6242145;23;20363;-46
2022/09/26 10:54:15;;;;;;;6.47;5.87;;;23.30;99.90;;;;;;6241665;23;20368;-48
2022/09/26 10:56:49;;;;;;;6.07;5.77;;;23.80;99.90;;;;;;6241592;23;20384;-44
2022/09/26 10:59:17;;;;;;;5.60;5.30;;;24.30;99.90;;;;;;6215048;23;20431;-50
2022/09/26 11:02:02;;;;;;;5.17;4.87;;;24.90;99.90;;;;;;6241434;23;20356;-46
2022/09/26 11:07:25;;;;;;;4.90;4.60;;;23.50;99.90;;;;;;6242013;23;20451;-49
2022/09/26 11:09:56;;;;;;;4.90;4.60;;;23.50;99.90;;;;;;6241867;23;20868;-44
2022/09/26 11:12:26;;;;;;;5.37;5.00;;;23.40;99.90;;;;;;6241672;23;20432;-45
2022/09/26 11:14:58;;;;;;;5.40;5.00;;;23.10;99.90;;;;;;6241994;23;20479;-47
2022/09/26 11:17:39;;;;;;;5.47;4.40;;;23.80;99.90;;;;;;6241374;23;20388;-45
2022/09/26 11:20:08;;;;;;;5.00;4.60;;;23.80;99.90;;;;;;6241801;23;20398;-51
2022/09/26 11:22:47;;;;;;;4.70;4.50;;;24.30;99.90;;;;;;6215429;23;20391;-47
2022/09/26 11:25:27;;;;;;;4.20;4.00;;;24.70;99.90;;;;;;6241420;23;20365;-52
2022/09/26 11:28:04;;;;;;;4.60;4.27;;;25.90;99.90;;;;;;6241400;23;20368;-44
2022/09/26 11:30:36;;;;;;;4.30;4.10;;;25.10;99.90;;;;;;6241396;23;20359;-46
2022/09/26 11:33:07;;;;;;;4.63;4.23;;;23.60;99.90;;;;;;6241194;23;20482;-45
2022/09/26 11:35:42;;;;;;;5.27;4.80;;;22.40;99.90;;;;;;6241255;23;20364;-48
2022/09/26 11:38:37;;;;;;;5.03;4.73;;;21.70;99.90;;;;;;6241014;23;20526;-45
2022/09/26 11:41:37;;;;;;;4.67;4.37;;;21.80;99.90;;;;;;6241697;23;20348;-47
2022/09/26 11:44:27;;;;;;;4.20;4.00;;;22.90;99.90;;;;;;6241390;23;20353;-44
2022/09/26 11:47:12;;;;;;;4.10;3.80;;;22.60;99.90;;;;;;6241862;23;20368;-47
2022/09/26 11:50:15;;;;;;;3.90;3.50;;;22.70;99.90;;;;;;6241483;23;20365;-45
2022/09/26 11:52:59;;;;;;;3.57;3.37;;;22.90;99.90;;;;;;6241451;23;20380;-45
2022/09/26 11:55:36;;;;;;;4.53;4.27;;;23.50;99.90;;;;;;6241458;23;20360;-44
2022/09/26 11:58:15;;;;;;;3.87;3.67;;;23.50;99.90;;;;;;6241131;23;20412;-48
2022/09/26 12:00:50;;;;;;;4.90;4.30;;;22.50;99.90;;;;;;6241555;23;20391;-46
2022/09/26 12:03:32;;;;;;;4.13;3.87;;;22.40;99.90;;;;;;6240820;23;20352;-46
2022/09/26 12:06:25;;;;;;;4.83;4.53;;;23.10;99.90;;;;;;6242316;23;20682;-47
2022/09/26 12:09:12;;;;;;;4.13;3.73;;;23.70;99.90;;;;;;6241596;23;20373;-46
2022/09/26 12:12:02;;;;;;;4.73;4.40;;;23.80;99.90;;;;;;6241557;23;20806;-48
2022/09/26 12:14:54;;;;;;;4.00;3.80;;;24.70;99.90;;;;;;6241066;23;20371;-47
2022/09/26 12:17:36;;;;;;;4.63;4.33;;;24.50;99.90;;;;;;6241290;23;20364;-46
2022/09/26 12:20:05;;;;;;;4.77;4.27;;;25.10;99.90;;;;;;6241422;23;20357;-46
2022/09/26 12:22:39;;;;;;;4.23;3.93;;;24.20;99.90;;;;;;6241239;23;20672;-46
2022/09/26 12:25:08;;;;;;;4.67;4.37;;;23.80;99.90;;;;;;6241095;23;20361;-49
2022/09/26 12:27:47;;;;;;;4.60;4.30;;;23.30;99.90;;;;;;6240956;23;20372;-50
2022/09/26 12:30:15;;;;;;;4.00;3.77;;;22.70;99.90;;;;;;6240101;23;20355;-47
2022/09/26 12:32:55;;;;;;;4.30;4.10;;;23.00;99.90;;;;;;6214338;23;20388;-46
2022/09/26 12:35:35;;;;;;;3.70;3.50;;;23.30;99.90;;;;;;6240995;23;20352;-47
2022/09/26 12:38:20;;;;;;;4.53;4.23;;;23.50;99.90;;;;;;6240408;23;20439;-46
2022/09/26 12:41:13;;;;;;;4.00;3.80;;;23.80;99.90;;;;;;6241285;23;20366;-50
2022/09/26 12:43:54;;;;;;;3.80;3.47;;;24.20;99.90;;;;;;6240797;23;20449;-49
2022/09/26 12:46:54;;;;;;;4.43;4.23;;;24.40;99.90;;;;;;6240953;23;20368;-46
2022/09/26 12:50:00;;;;;;;4.37;4.07;;;24.50;99.90;;;;;;6240940;23;20375;-51
2022/09/26 12:52:53;;;;;;;4.20;4.00;;;23.80;99.90;;;;;;6241209;23;20827;-46
2022/09/26 12:55:52;;;;;;;4.47;4.20;;;21.80;99.90;;;;;;6240879;23;20804;-48
2022/09/26 12:58:42;;;;;;;4.60;4.30;;;20.50;99.90;;;;;;6240028;23;20418;-47
2022/09/26 13:01:43;;;;;;;4.57;4.37;;;20.40;99.90;;;;;;6240605;23;20367;-46
2022/09/26 13:04:38;;;;;;;3.97;3.77;;;20.00;99.90;;;;;;6240727;23;20383;-48
2022/09/26 13:07:07;;;;;;;4.40;4.10;;;19.90;99.90;;;;;;6240767;23;20422;-46
2022/09/26 13:09:51;;;;;;;3.90;3.70;;;19.60;99.90;;;;;;6240989;23;20384;-48
2022/09/26 13:12:47;;;;;;;4.03;3.83;;;19.60;99.90;;;;;;6240783;23;20361;-50
2022/09/26 13:15:33;;;;;;;3.60;3.40;;;19.40;99.90;;;;;;6240568;23;20384;-49
2022/09/26 13:18:09;;;;;;;4.00;3.80;;;19.50;99.90;;;;;;6240463;23;20420;-49
2022/09/26 13:20:43;;;;;;;3.80;3.60;;;19.60;99.90;;;;;;6240558;23;20454;-48